<?xml version='1.0' encoding='UTF-8'?><gpx version="1.1" creator="JPX - https://github.com/jenetics/jpx" xmlns="http://www.topografix.com/GPX/1/1"><trk><trkseg><trkpt lat="43.7579214" lon="11.1807196"><ele>45.0</ele><time>2026-04-10T10:31:41.915Z</time></trkpt><trkpt lat="43.7581304" lon="11.1806369"><ele>45.0</ele><time>2026-04-10T10:31:42.976Z</time></trkpt><trkpt lat="43.7578107" lon="11.1809203"><ele>45.0</ele><time>2026-04-10T10:31:43.955Z</time></trkpt><trkpt lat="43.7577474" lon="11.1810748"><ele>45.0</ele><time>2026-04-10T10:31:44.921Z</time></trkpt><trkpt lat="43.7576689" lon="11.1813532"><ele>45.0</ele><time>2026-04-10T10:31:45.915Z</time></trkpt><trkpt lat="43.7576511" lon="11.1814434"><ele>45.0</ele><time>2026-04-10T10:31:46.914Z</time></trkpt><trkpt lat="43.7579555" lon="11.1810363"><ele>45.0</ele><time>2026-04-10T10:31:53.26Z</time></trkpt><trkpt lat="43.7580704" lon="11.1808893"><ele>45.0</ele><time>2026-04-10T10:31:54.456Z</time></trkpt><trkpt lat="43.7580906" lon="11.180796"><ele>45.0</ele><time>2026-04-10T10:31:56.376Z</time></trkpt><trkpt lat="43.7580651" lon="11.180711"><ele>45.0</ele><time>2026-04-10T10:31:59.39Z</time></trkpt><trkpt lat="43.7580239" lon="11.1807959"><ele>45.0</ele><time>2026-04-10T10:32:04.417Z</time></trkpt><trkpt lat="43.7580508" lon="11.1808765"><ele>45.0</ele><time>2026-04-10T10:32:08.413Z</time></trkpt><trkpt lat="43.7580784" lon="11.1809779"><ele>45.0</ele><time>2026-04-10T10:32:13.401Z</time></trkpt><trkpt lat="43.7581044" lon="11.1810621"><ele>45.0</ele><time>2026-04-10T10:32:18.415Z</time></trkpt><trkpt lat="43.7581227" lon="11.1811536"><ele>45.0</ele><time>2026-04-10T10:32:29.393Z</time></trkpt><trkpt lat="43.7580787" lon="11.1812321"><ele>45.0</ele><time>2026-04-10T10:32:36.376Z</time></trkpt><trkpt lat="43.7580133" lon="11.1812708"><ele>45.0</ele><time>2026-04-10T10:32:41.459Z</time></trkpt><trkpt lat="43.757965" lon="11.1813521"><ele>45.0</ele><time>2026-04-10T10:32:46.459Z</time></trkpt><trkpt lat="43.7579365" lon="11.1814319"><ele>45.0</ele><time>2026-04-10T10:32:52.437Z</time></trkpt><trkpt lat="43.7578993" lon="11.1815158"><ele>44.857142857142854</ele><time>2026-04-10T10:32:57.276Z</time></trkpt><trkpt lat="43.7578646" lon="11.1816083"><ele>44.714285714285715</ele><time>2026-04-10T10:33:02.841Z</time></trkpt><trkpt lat="43.757814" lon="11.1816677"><ele>44.57142857142857</ele><time>2026-04-10T10:33:06.053Z</time></trkpt><trkpt lat="43.7577785" lon="11.1817576"><ele>44.42857142857143</ele><time>2026-04-10T10:33:10.401Z</time></trkpt><trkpt lat="43.7577889" lon="11.1818554"><ele>44.285714285714285</ele><time>2026-04-10T10:33:13.417Z</time></trkpt><trkpt lat="43.757838" lon="11.1819421"><ele>44.142857142857146</ele><time>2026-04-10T10:33:19.338Z</time></trkpt><trkpt lat="43.7578815" lon="11.1820183"><ele>44.0</ele><time>2026-04-10T10:33:25.44Z</time></trkpt><trkpt lat="43.7579386" lon="11.1820884"><ele>44.0</ele><time>2026-04-10T10:33:31.376Z</time></trkpt><trkpt lat="43.7579986" lon="11.1821425"><ele>44.0</ele><time>2026-04-10T10:33:37.386Z</time></trkpt><trkpt lat="43.758055" lon="11.1821994"><ele>44.0</ele><time>2026-04-10T10:33:42.441Z</time></trkpt><trkpt lat="43.7580849" lon="11.1822792"><ele>44.0</ele><time>2026-04-10T10:33:47.441Z</time></trkpt><trkpt lat="43.7581187" lon="11.1823711"><ele>44.0</ele><time>2026-04-10T10:33:52.442Z</time></trkpt><trkpt lat="43.7581498" lon="11.1824666"><ele>44.0</ele><time>2026-04-10T10:33:59.399Z</time></trkpt><trkpt lat="43.7581407" lon="11.1825737"><ele>44.0</ele><time>2026-04-10T10:34:03.421Z</time></trkpt><trkpt lat="43.7581733" lon="11.1826494"><ele>44.0</ele><time>2026-04-10T10:34:06.376Z</time></trkpt><trkpt lat="43.7582191" lon="11.1827266"><ele>44.0</ele><time>2026-04-10T10:34:10.378Z</time></trkpt><trkpt lat="43.7582792" lon="11.1827881"><ele>44.0</ele><time>2026-04-10T10:34:14.358Z</time></trkpt><trkpt lat="43.7583569" lon="11.1828126"><ele>44.0</ele><time>2026-04-10T10:34:17.444Z</time></trkpt><trkpt lat="43.7584235" lon="11.1828332"><ele>44.0</ele><time>2026-04-10T10:34:20.378Z</time></trkpt><trkpt lat="43.7584889" lon="11.182877"><ele>44.0</ele><time>2026-04-10T10:34:25.379Z</time></trkpt><trkpt lat="43.7585478" lon="11.1829308"><ele>44.0</ele><time>2026-04-10T10:34:30.38Z</time></trkpt><trkpt lat="43.7585983" lon="11.1829877"><ele>43.714285714285715</ele><time>2026-04-10T10:34:34.401Z</time></trkpt><trkpt lat="43.7586488" lon="11.1830521"><ele>43.42857142857143</ele><time>2026-04-10T10:34:38.441Z</time></trkpt><trkpt lat="43.7587124" lon="11.1830696"><ele>43.14285714285714</ele><time>2026-04-10T10:34:44.401Z</time></trkpt><trkpt lat="43.7587862" lon="11.1829752"><ele>42.85714285714286</ele><time>2026-04-10T10:35:21.436Z</time></trkpt><trkpt lat="43.7588603" lon="11.1829835"><ele>42.57142857142857</ele><time>2026-04-10T10:35:25.383Z</time></trkpt><trkpt lat="43.7589266" lon="11.1829896"><ele>42.285714285714285</ele><time>2026-04-10T10:35:31.376Z</time></trkpt><trkpt lat="43.7589762" lon="11.1830511"><ele>42.0</ele><time>2026-04-10T10:35:36.47Z</time></trkpt><trkpt lat="43.7589809" lon="11.1829463"><ele>42.0</ele><time>2026-04-10T10:35:50.379Z</time></trkpt><trkpt lat="43.7590545" lon="11.1829025"><ele>42.0</ele><time>2026-04-10T10:35:57.445Z</time></trkpt><trkpt lat="43.7591166" lon="11.1828259"><ele>42.0</ele><time>2026-04-10T10:36:01.376Z</time></trkpt><trkpt lat="43.7591562" lon="11.1827516"><ele>42.0</ele><time>2026-04-10T10:36:05.38Z</time></trkpt><trkpt lat="43.7591893" lon="11.1826707"><ele>42.0</ele><time>2026-04-10T10:36:10.38Z</time></trkpt><trkpt lat="43.7592319" lon="11.1826053"><ele>42.0</ele><time>2026-04-10T10:36:15.381Z</time></trkpt><trkpt lat="43.7592725" lon="11.1825266"><ele>42.0</ele><time>2026-04-10T10:36:21.402Z</time></trkpt><trkpt lat="43.7593131" lon="11.1824403"><ele>42.0</ele><time>2026-04-10T10:36:26.42Z</time></trkpt><trkpt lat="43.7593518" lon="11.1823563"><ele>42.0</ele><time>2026-04-10T10:36:32.447Z</time></trkpt><trkpt lat="43.7593907" lon="11.1822773"><ele>42.0</ele><time>2026-04-10T10:36:38.42Z</time></trkpt><trkpt lat="43.7594193" lon="11.1821993"><ele>42.0</ele><time>2026-04-10T10:36:43.319Z</time></trkpt><trkpt lat="43.7594643" lon="11.1821212"><ele>42.0</ele><time>2026-04-10T10:36:49.399Z</time></trkpt><trkpt lat="43.7594902" lon="11.182039"><ele>42.0</ele><time>2026-04-10T10:36:54.399Z</time></trkpt><trkpt lat="43.7595197" lon="11.1819508"><ele>42.0</ele><time>2026-04-10T10:36:58.917Z</time></trkpt><trkpt lat="43.7595497" lon="11.1818712"><ele>42.142857142857146</ele><time>2026-04-10T10:37:03.281Z</time></trkpt><trkpt lat="43.7595807" lon="11.1817928"><ele>42.285714285714285</ele><time>2026-04-10T10:37:08.421Z</time></trkpt><trkpt lat="43.7596246" lon="11.1817089"><ele>42.42857142857143</ele><time>2026-04-10T10:37:13.422Z</time></trkpt><trkpt lat="43.7596693" lon="11.1816283"><ele>42.57142857142857</ele><time>2026-04-10T10:37:18.422Z</time></trkpt><trkpt lat="43.7597088" lon="11.1815579"><ele>42.714285714285715</ele><time>2026-04-10T10:37:22.444Z</time></trkpt><trkpt lat="43.7597497" lon="11.1814775"><ele>42.85714285714286</ele><time>2026-04-10T10:37:27.358Z</time></trkpt><trkpt lat="43.7598099" lon="11.18145"><ele>43.0</ele><time>2026-04-10T10:37:33.423Z</time></trkpt><trkpt lat="43.7598731" lon="11.1814788"><ele>43.00000000000001</ele><time>2026-04-10T10:37:38.423Z</time></trkpt><trkpt lat="43.7599395" lon="11.1815298"><ele>43.0</ele><time>2026-04-10T10:37:45.381Z</time></trkpt><trkpt lat="43.7599952" lon="11.1815784"><ele>43.0</ele><time>2026-04-10T10:37:51.376Z</time></trkpt><trkpt lat="43.760058" lon="11.1816265"><ele>43.0</ele><time>2026-04-10T10:37:57.446Z</time></trkpt><trkpt lat="43.760114" lon="11.1816691"><ele>43.0</ele><time>2026-04-10T10:38:01.375Z</time></trkpt><trkpt lat="43.7601777" lon="11.1817149"><ele>43.00000000000001</ele><time>2026-04-10T10:38:06.375Z</time></trkpt><trkpt lat="43.7602431" lon="11.1817629"><ele>43.0</ele><time>2026-04-10T10:38:12.439Z</time></trkpt><trkpt lat="43.7602964" lon="11.1818107"><ele>42.714285714285715</ele><time>2026-04-10T10:38:17.276Z</time></trkpt><trkpt lat="43.7603673" lon="11.1818425"><ele>42.42857142857143</ele><time>2026-04-10T10:38:22.361Z</time></trkpt><trkpt lat="43.7604168" lon="11.1818967"><ele>42.14285714285714</ele><time>2026-04-10T10:38:26.376Z</time></trkpt><trkpt lat="43.7604819" lon="11.1819477"><ele>41.85714285714286</ele><time>2026-04-10T10:38:31.378Z</time></trkpt><trkpt lat="43.760551" lon="11.1819992"><ele>41.57142857142857</ele><time>2026-04-10T10:38:36.375Z</time></trkpt><trkpt lat="43.7606123" lon="11.1820383"><ele>41.285714285714285</ele><time>2026-04-10T10:38:41.47Z</time></trkpt><trkpt lat="43.760678" lon="11.1820884"><ele>41.0</ele><time>2026-04-10T10:38:46.375Z</time></trkpt><trkpt lat="43.7607365" lon="11.1821351"><ele>40.99999999999999</ele><time>2026-04-10T10:38:51.375Z</time></trkpt><trkpt lat="43.7607975" lon="11.1821802"><ele>41.0</ele><time>2026-04-10T10:38:56.376Z</time></trkpt><trkpt lat="43.7608611" lon="11.182225"><ele>41.0</ele><time>2026-04-10T10:39:01.375Z</time></trkpt><trkpt lat="43.7609247" lon="11.1822014"><ele>41.0</ele><time>2026-04-10T10:39:11.376Z</time></trkpt><trkpt lat="43.7609612" lon="11.182126"><ele>41.0</ele><time>2026-04-10T10:39:17.45Z</time></trkpt><trkpt lat="43.7610219" lon="11.1820782"><ele>40.99999999999999</ele><time>2026-04-10T10:39:23.429Z</time></trkpt><trkpt lat="43.7610897" lon="11.1820571"><ele>41.0</ele><time>2026-04-10T10:39:29.341Z</time></trkpt><trkpt lat="43.7611558" lon="11.1820154"><ele>41.285714285714285</ele><time>2026-04-10T10:39:34.408Z</time></trkpt><trkpt lat="43.7612224" lon="11.1819787"><ele>41.57142857142857</ele><time>2026-04-10T10:39:39.408Z</time></trkpt><trkpt lat="43.7612796" lon="11.1819263"><ele>41.85714285714286</ele><time>2026-04-10T10:39:44.409Z</time></trkpt><trkpt lat="43.7613444" lon="11.1818969"><ele>42.14285714285714</ele><time>2026-04-10T10:39:50.458Z</time></trkpt><trkpt lat="43.7614138" lon="11.181884"><ele>42.42857142857143</ele><time>2026-04-10T10:39:56.375Z</time></trkpt><trkpt lat="43.7614791" lon="11.1818619"><ele>42.714285714285715</ele><time>2026-04-10T10:40:01.475Z</time></trkpt><trkpt lat="43.7615483" lon="11.1818454"><ele>43.0</ele><time>2026-04-10T10:40:06.375Z</time></trkpt><trkpt lat="43.7616184" lon="11.1818249"><ele>43.00000000000001</ele><time>2026-04-10T10:40:11.375Z</time></trkpt><trkpt lat="43.7616949" lon="11.181807"><ele>43.0</ele><time>2026-04-10T10:40:16.375Z</time></trkpt><trkpt lat="43.7617377" lon="11.1817356"><ele>43.0</ele><time>2026-04-10T10:40:20.389Z</time></trkpt><trkpt lat="43.7617878" lon="11.1816542"><ele>43.0</ele><time>2026-04-10T10:40:24.411Z</time></trkpt><trkpt lat="43.7617832" lon="11.1815501"><ele>43.0</ele><time>2026-04-10T10:40:27.455Z</time></trkpt><trkpt lat="43.7618066" lon="11.1814421"><ele>43.00000000000001</ele><time>2026-04-10T10:40:31.376Z</time></trkpt><trkpt lat="43.7618377" lon="11.1813624"><ele>43.0</ele><time>2026-04-10T10:40:38.434Z</time></trkpt><trkpt lat="43.7618761" lon="11.1812776"><ele>43.142857142857146</ele><time>2026-04-10T10:40:44.419Z</time></trkpt><trkpt lat="43.7619209" lon="11.181193"><ele>43.285714285714285</ele><time>2026-04-10T10:40:49.42Z</time></trkpt><trkpt lat="43.7619572" lon="11.1811"><ele>43.42857142857143</ele><time>2026-04-10T10:40:54.414Z</time></trkpt><trkpt lat="43.7619881" lon="11.1810117"><ele>43.57142857142857</ele><time>2026-04-10T10:40:58.441Z</time></trkpt><trkpt lat="43.7620275" lon="11.1809326"><ele>43.714285714285715</ele><time>2026-04-10T10:41:02.459Z</time></trkpt><trkpt lat="43.7620705" lon="11.1808576"><ele>43.85714285714286</ele><time>2026-04-10T10:41:07.679Z</time></trkpt><trkpt lat="43.7621065" lon="11.1807642"><ele>44.0</ele><time>2026-04-10T10:41:13.12Z</time></trkpt><trkpt lat="43.7621399" lon="11.1806857"><ele>44.0</ele><time>2026-04-10T10:41:18.317Z</time></trkpt><trkpt lat="43.7621924" lon="11.1806343"><ele>44.0</ele><time>2026-04-10T10:41:28.435Z</time></trkpt><trkpt lat="43.7622202" lon="11.1807224"><ele>44.0</ele><time>2026-04-10T10:41:35.361Z</time></trkpt><trkpt lat="43.7622785" lon="11.1807699"><ele>44.0</ele><time>2026-04-10T10:41:41.375Z</time></trkpt><trkpt lat="43.7623428" lon="11.1808112"><ele>44.0</ele><time>2026-04-10T10:41:46.438Z</time></trkpt><trkpt lat="43.7624093" lon="11.1808519"><ele>44.0</ele><time>2026-04-10T10:41:51.375Z</time></trkpt><trkpt lat="43.762472" lon="11.1809029"><ele>44.0</ele><time>2026-04-10T10:41:56.375Z</time></trkpt><trkpt lat="43.762531" lon="11.1809456"><ele>44.0</ele><time>2026-04-10T10:42:01.477Z</time></trkpt><trkpt lat="43.7626019" lon="11.1810031"><ele>44.0</ele><time>2026-04-10T10:42:07.202Z</time></trkpt><trkpt lat="43.7626631" lon="11.1810483"><ele>44.0</ele><time>2026-04-10T10:42:11.374Z</time></trkpt><trkpt lat="43.7627231" lon="11.1811001"><ele>44.0</ele><time>2026-04-10T10:42:16.381Z</time></trkpt><trkpt lat="43.7627807" lon="11.1811495"><ele>44.0</ele><time>2026-04-10T10:42:21.318Z</time></trkpt><trkpt lat="43.7628468" lon="11.1811912"><ele>44.0</ele><time>2026-04-10T10:42:26.375Z</time></trkpt><trkpt lat="43.7629035" lon="11.1812443"><ele>44.0</ele><time>2026-04-10T10:42:31.374Z</time></trkpt><trkpt lat="43.7629596" lon="11.181286"><ele>43.57142857142857</ele><time>2026-04-10T10:42:35.393Z</time></trkpt><trkpt lat="43.7630265" lon="11.181332"><ele>43.14285714285714</ele><time>2026-04-10T10:42:40.323Z</time></trkpt><trkpt lat="43.7630895" lon="11.1813907"><ele>42.71428571428571</ele><time>2026-04-10T10:42:46.4Z</time></trkpt><trkpt lat="43.7631577" lon="11.1814329"><ele>42.285714285714285</ele><time>2026-04-10T10:42:51.374Z</time></trkpt><trkpt lat="43.7632177" lon="11.181475"><ele>41.857142857142854</ele><time>2026-04-10T10:42:56.374Z</time></trkpt><trkpt lat="43.7632647" lon="11.1815382"><ele>41.42857142857142</ele><time>2026-04-10T10:43:01.375Z</time></trkpt><trkpt lat="43.7633408" lon="11.1815773"><ele>41.0</ele><time>2026-04-10T10:43:07.462Z</time></trkpt><trkpt lat="43.7634" lon="11.1816136"><ele>40.857142857142854</ele><time>2026-04-10T10:43:12.897Z</time></trkpt><trkpt lat="43.76345" lon="11.18167"><ele>40.714285714285715</ele><time>2026-04-10T10:43:17.463Z</time></trkpt><trkpt lat="43.7634971" lon="11.1817376"><ele>40.57142857142857</ele><time>2026-04-10T10:43:21.376Z</time></trkpt><trkpt lat="43.7635634" lon="11.1817725"><ele>40.42857142857143</ele><time>2026-04-10T10:43:26.485Z</time></trkpt><trkpt lat="43.7636349" lon="11.1817991"><ele>40.285714285714285</ele><time>2026-04-10T10:43:32.318Z</time></trkpt><trkpt lat="43.7636892" lon="11.1818483"><ele>40.14285714285714</ele><time>2026-04-10T10:43:37.397Z</time></trkpt><trkpt lat="43.7637506" lon="11.1818851"><ele>40.0</ele><time>2026-04-10T10:43:42.377Z</time></trkpt><trkpt lat="43.7638134" lon="11.1819321"><ele>40.0</ele><time>2026-04-10T10:43:48.374Z</time></trkpt><trkpt lat="43.7638726" lon="11.1818727"><ele>40.0</ele><time>2026-04-10T10:43:59.421Z</time></trkpt><trkpt lat="43.763929" lon="11.1818306"><ele>40.0</ele><time>2026-04-10T10:44:03.443Z</time></trkpt><trkpt lat="43.7640012" lon="11.1818614"><ele>40.0</ele><time>2026-04-10T10:44:09.458Z</time></trkpt><trkpt lat="43.764062" lon="11.1819014"><ele>40.0</ele><time>2026-04-10T10:44:14.478Z</time></trkpt><trkpt lat="43.7641293" lon="11.1819358"><ele>40.0</ele><time>2026-04-10T10:44:20.4Z</time></trkpt><trkpt lat="43.7641981" lon="11.181929"><ele>40.0</ele><time>2026-04-10T10:44:26.459Z</time></trkpt><trkpt lat="43.7642736" lon="11.1819012"><ele>40.0</ele><time>2026-04-10T10:44:32.465Z</time></trkpt><trkpt lat="43.7643453" lon="11.1818922"><ele>40.0</ele><time>2026-04-10T10:44:38.443Z</time></trkpt><trkpt lat="43.7644073" lon="11.1818701"><ele>40.0</ele><time>2026-04-10T10:44:44.422Z</time></trkpt><trkpt lat="43.7644675" lon="11.1818435"><ele>40.0</ele><time>2026-04-10T10:44:49.339Z</time></trkpt><trkpt lat="43.7645305" lon="11.1818234"><ele>40.0</ele><time>2026-04-10T10:44:55.437Z</time></trkpt><trkpt lat="43.7645894" lon="11.1817769"><ele>40.0</ele><time>2026-04-10T10:45:02.418Z</time></trkpt><trkpt lat="43.7646059" lon="11.1816807"><ele>40.0</ele><time>2026-04-10T10:45:08.444Z</time></trkpt><trkpt lat="43.7646181" lon="11.1815757"><ele>40.0</ele><time>2026-04-10T10:45:13.445Z</time></trkpt><trkpt lat="43.7646226" lon="11.1814842"><ele>40.0</ele><time>2026-04-10T10:45:18.44Z</time></trkpt><trkpt lat="43.7646063" lon="11.1813994"><ele>40.0</ele><time>2026-04-10T10:45:23.444Z</time></trkpt><trkpt lat="43.7645864" lon="11.1813042"><ele>40.0</ele><time>2026-04-10T10:45:29.422Z</time></trkpt><trkpt lat="43.7645664" lon="11.1812004"><ele>40.0</ele><time>2026-04-10T10:45:36.058Z</time></trkpt><trkpt lat="43.7645512" lon="11.1810973"><ele>40.0</ele><time>2026-04-10T10:45:41.378Z</time></trkpt><trkpt lat="43.7645374" lon="11.1810021"><ele>40.0</ele><time>2026-04-10T10:45:46.486Z</time></trkpt><trkpt lat="43.7645176" lon="11.1809149"><ele>40.0</ele><time>2026-04-10T10:45:51.378Z</time></trkpt><trkpt lat="43.7644987" lon="11.1808151"><ele>40.0</ele><time>2026-04-10T10:45:57.464Z</time></trkpt><trkpt lat="43.7644852" lon="11.1807296"><ele>40.0</ele><time>2026-04-10T10:46:02.464Z</time></trkpt><trkpt lat="43.764451" lon="11.180644"><ele>40.0</ele><time>2026-04-10T10:46:07.501Z</time></trkpt><trkpt lat="43.7644257" lon="11.1805503"><ele>40.0</ele><time>2026-04-10T10:46:15.459Z</time></trkpt><trkpt lat="43.7644171" lon="11.1804549"><ele>40.0</ele><time>2026-04-10T10:46:20.399Z</time></trkpt><trkpt lat="43.7644493" lon="11.1803774"><ele>40.0</ele><time>2026-04-10T10:46:29.419Z</time></trkpt><trkpt lat="43.7644133" lon="11.1802983"><ele>40.285714285714285</ele><time>2026-04-10T10:46:40.397Z</time></trkpt><trkpt lat="43.7643777" lon="11.1801957"><ele>40.57142857142857</ele><time>2026-04-10T10:46:45.397Z</time></trkpt><trkpt lat="43.764353" lon="11.1801005"><ele>40.85714285714286</ele><time>2026-04-10T10:46:50.48Z</time></trkpt><trkpt lat="43.7643319" lon="11.1799975"><ele>41.14285714285714</ele><time>2026-04-10T10:46:55.177Z</time></trkpt><trkpt lat="43.7643168" lon="11.1799042"><ele>41.42857142857143</ele><time>2026-04-10T10:46:59.418Z</time></trkpt><trkpt lat="43.7643026" lon="11.1798175"><ele>41.714285714285715</ele><time>2026-04-10T10:47:04.418Z</time></trkpt><trkpt lat="43.7642828" lon="11.1797324"><ele>42.0</ele><time>2026-04-10T10:47:09.418Z</time></trkpt><trkpt lat="43.7642578" lon="11.1796325"><ele>42.142857142857146</ele><time>2026-04-10T10:47:15.396Z</time></trkpt><trkpt lat="43.7642347" lon="11.1795451"><ele>42.285714285714285</ele><time>2026-04-10T10:47:20.379Z</time></trkpt><trkpt lat="43.7642251" lon="11.1794459"><ele>42.42857142857143</ele><time>2026-04-10T10:47:25.6Z</time></trkpt><trkpt lat="43.7642074" lon="11.1793606"><ele>42.57142857142857</ele><time>2026-04-10T10:47:30.394Z</time></trkpt><trkpt lat="43.7641878" lon="11.1792643"><ele>42.714285714285715</ele><time>2026-04-10T10:47:35.394Z</time></trkpt><trkpt lat="43.7641653" lon="11.1791688"><ele>42.85714285714286</ele><time>2026-04-10T10:47:40.499Z</time></trkpt><trkpt lat="43.7641477" lon="11.1790771"><ele>43.0</ele><time>2026-04-10T10:47:46.48Z</time></trkpt><trkpt lat="43.7641303" lon="11.1789904"><ele>43.142857142857146</ele><time>2026-04-10T10:47:52.458Z</time></trkpt><trkpt lat="43.7641037" lon="11.1789"><ele>43.285714285714285</ele><time>2026-04-10T10:47:57.456Z</time></trkpt><trkpt lat="43.7640906" lon="11.1787954"><ele>43.42857142857143</ele><time>2026-04-10T10:48:02.456Z</time></trkpt><trkpt lat="43.7640731" lon="11.178709"><ele>43.57142857142857</ele><time>2026-04-10T10:48:07.456Z</time></trkpt><trkpt lat="43.764058" lon="11.1786243"><ele>43.714285714285715</ele><time>2026-04-10T10:48:12.476Z</time></trkpt><trkpt lat="43.7640391" lon="11.1785272"><ele>43.85714285714286</ele><time>2026-04-10T10:48:18.433Z</time></trkpt><trkpt lat="43.7640303" lon="11.1784211"><ele>44.0</ele><time>2026-04-10T10:48:23.432Z</time></trkpt><trkpt lat="43.7640202" lon="11.1783309"><ele>44.0</ele><time>2026-04-10T10:48:28.43Z</time></trkpt><trkpt lat="43.7640038" lon="11.1782458"><ele>44.0</ele><time>2026-04-10T10:48:33.359Z</time></trkpt><trkpt lat="43.7639855" lon="11.1781563"><ele>44.0</ele><time>2026-04-10T10:48:38.429Z</time></trkpt><trkpt lat="43.7639735" lon="11.1780562"><ele>44.0</ele><time>2026-04-10T10:48:44.406Z</time></trkpt><trkpt lat="43.7639542" lon="11.1779562"><ele>44.0</ele><time>2026-04-10T10:48:50.383Z</time></trkpt><trkpt lat="43.7639366" lon="11.1778626"><ele>44.0</ele><time>2026-04-10T10:48:55.492Z</time></trkpt><trkpt lat="43.7639198" lon="11.1777731"><ele>44.0</ele><time>2026-04-10T10:49:00.49Z</time></trkpt><trkpt lat="43.7639032" lon="11.1776841"><ele>44.0</ele><time>2026-04-10T10:49:05.497Z</time></trkpt><trkpt lat="43.763885" lon="11.1775804"><ele>44.0</ele><time>2026-04-10T10:49:11.467Z</time></trkpt><trkpt lat="43.7638628" lon="11.1774855"><ele>44.0</ele><time>2026-04-10T10:49:33.419Z</time></trkpt><trkpt lat="43.7638384" lon="11.1773968"><ele>44.0</ele><time>2026-04-10T10:49:38.376Z</time></trkpt><trkpt lat="43.7638296" lon="11.1772868"><ele>44.0</ele><time>2026-04-10T10:49:44.221Z</time></trkpt><trkpt lat="43.7638135" lon="11.17719"><ele>44.0</ele><time>2026-04-10T10:49:48.416Z</time></trkpt><trkpt lat="43.7637968" lon="11.1771043"><ele>44.0</ele><time>2026-04-10T10:49:52.437Z</time></trkpt><trkpt lat="43.7637832" lon="11.1770091"><ele>44.0</ele><time>2026-04-10T10:49:57.36Z</time></trkpt><trkpt lat="43.7637878" lon="11.1769217"><ele>44.0</ele><time>2026-04-10T10:50:05.057Z</time></trkpt><trkpt lat="43.7638418" lon="11.1769674"><ele>44.0</ele><time>2026-04-10T10:50:09.399Z</time></trkpt><trkpt lat="43.763799" lon="11.1768768"><ele>44.0</ele><time>2026-04-10T10:50:17.457Z</time></trkpt><trkpt lat="43.7637837" lon="11.1767842"><ele>44.0</ele><time>2026-04-10T10:50:21.373Z</time></trkpt><trkpt lat="43.7637783" lon="11.1766919"><ele>44.0</ele><time>2026-04-10T10:50:25.373Z</time></trkpt><trkpt lat="43.7637798" lon="11.1765758"><ele>44.0</ele><time>2026-04-10T10:50:30.373Z</time></trkpt><trkpt lat="43.7637786" lon="11.176478"><ele>43.714285714285715</ele><time>2026-04-10T10:50:35.374Z</time></trkpt><trkpt lat="43.7637729" lon="11.1763761"><ele>43.42857142857143</ele><time>2026-04-10T10:50:41.34Z</time></trkpt><trkpt lat="43.7637657" lon="11.1762756"><ele>43.14285714285714</ele><time>2026-04-10T10:50:47.429Z</time></trkpt><trkpt lat="43.7637618" lon="11.1761813"><ele>42.85714285714286</ele><time>2026-04-10T10:50:53.407Z</time></trkpt><trkpt lat="43.7637895" lon="11.1760516"><ele>42.57142857142857</ele><time>2026-04-10T10:51:26.451Z</time></trkpt><trkpt lat="43.7637821" lon="11.1759588"><ele>42.285714285714285</ele><time>2026-04-10T10:51:31.451Z</time></trkpt><trkpt lat="43.7637926" lon="11.1758655"><ele>42.0</ele><time>2026-04-10T10:51:35.357Z</time></trkpt><trkpt lat="43.7637944" lon="11.1757682"><ele>41.857142857142854</ele><time>2026-04-10T10:51:41.451Z</time></trkpt><trkpt lat="43.7638245" lon="11.1756816"><ele>41.714285714285715</ele><time>2026-04-10T10:51:46.451Z</time></trkpt><trkpt lat="43.7638716" lon="11.1756104"><ele>41.57142857142857</ele><time>2026-04-10T10:51:51.451Z</time></trkpt><trkpt lat="43.763883" lon="11.1755191"><ele>41.42857142857143</ele><time>2026-04-10T10:51:57.429Z</time></trkpt><trkpt lat="43.7639527" lon="11.1755029"><ele>41.285714285714285</ele><time>2026-04-10T10:52:03.408Z</time></trkpt><trkpt lat="43.7640162" lon="11.1754744"><ele>41.14285714285714</ele><time>2026-04-10T10:52:08.408Z</time></trkpt><trkpt lat="43.7640835" lon="11.1754935"><ele>41.0</ele><time>2026-04-10T10:52:12.476Z</time></trkpt><trkpt lat="43.7641553" lon="11.1755165"><ele>40.99999999999999</ele><time>2026-04-10T10:52:16.452Z</time></trkpt><trkpt lat="43.7642264" lon="11.1755411"><ele>41.0</ele><time>2026-04-10T10:52:20.44Z</time></trkpt><trkpt lat="43.7642995" lon="11.175573"><ele>41.0</ele><time>2026-04-10T10:52:24.386Z</time></trkpt><trkpt lat="43.7643729" lon="11.175588"><ele>41.0</ele><time>2026-04-10T10:52:28.461Z</time></trkpt><trkpt lat="43.7644174" lon="11.1755065"><ele>41.0</ele><time>2026-04-10T10:52:35.373Z</time></trkpt><trkpt lat="43.7644497" lon="11.1754223"><ele>40.99999999999999</ele><time>2026-04-10T10:52:41.373Z</time></trkpt><trkpt lat="43.7644525" lon="11.17533"><ele>41.0</ele><time>2026-04-10T10:52:47.417Z</time></trkpt><trkpt lat="43.7644706" lon="11.1752296"><ele>41.42857142857142</ele><time>2026-04-10T10:52:57.43Z</time></trkpt><trkpt lat="43.7644865" lon="11.175126"><ele>41.857142857142854</ele><time>2026-04-10T10:53:01.38Z</time></trkpt><trkpt lat="43.7645005" lon="11.1750292"><ele>42.285714285714285</ele><time>2026-04-10T10:53:05.373Z</time></trkpt><trkpt lat="43.7645084" lon="11.1749263"><ele>42.71428571428571</ele><time>2026-04-10T10:53:10.338Z</time></trkpt><trkpt lat="43.764517" lon="11.1748308"><ele>43.14285714285714</ele><time>2026-04-10T10:53:15.358Z</time></trkpt><trkpt lat="43.764527" lon="11.1747326"><ele>43.57142857142857</ele><time>2026-04-10T10:53:21.452Z</time></trkpt><trkpt lat="43.7645388" lon="11.1746369"><ele>44.0</ele><time>2026-04-10T10:53:26.939Z</time></trkpt><trkpt lat="43.764552" lon="11.1745375"><ele>44.0</ele><time>2026-04-10T10:53:32.43Z</time></trkpt><trkpt lat="43.7645693" lon="11.1744348"><ele>44.0</ele><time>2026-04-10T10:53:37.43Z</time></trkpt><trkpt lat="43.7645897" lon="11.1743373"><ele>44.0</ele><time>2026-04-10T10:53:42.96Z</time></trkpt><trkpt lat="43.7646086" lon="11.1742518"><ele>44.0</ele><time>2026-04-10T10:53:48.409Z</time></trkpt><trkpt lat="43.7646191" lon="11.174161"><ele>44.0</ele><time>2026-04-10T10:53:53.386Z</time></trkpt><trkpt lat="43.7646339" lon="11.1740708"><ele>44.0</ele><time>2026-04-10T10:53:58.408Z</time></trkpt><trkpt lat="43.7646513" lon="11.1739729"><ele>44.0</ele><time>2026-04-10T10:54:04.378Z</time></trkpt><trkpt lat="43.7646739" lon="11.1738769"><ele>43.85714285714286</ele><time>2026-04-10T10:54:09.386Z</time></trkpt><trkpt lat="43.7646978" lon="11.1737881"><ele>43.714285714285715</ele><time>2026-04-10T10:54:14.386Z</time></trkpt><trkpt lat="43.7647084" lon="11.1736983"><ele>43.57142857142857</ele><time>2026-04-10T10:54:19.419Z</time></trkpt><trkpt lat="43.7647407" lon="11.1736051"><ele>43.42857142857143</ele><time>2026-04-10T10:54:25.373Z</time></trkpt><trkpt lat="43.7647534" lon="11.1735066"><ele>43.285714285714285</ele><time>2026-04-10T10:54:30.297Z</time></trkpt><trkpt lat="43.7647696" lon="11.173406"><ele>43.142857142857146</ele><time>2026-04-10T10:54:36.451Z</time></trkpt><trkpt lat="43.7647879" lon="11.1733214"><ele>43.0</ele><time>2026-04-10T10:54:42.429Z</time></trkpt><trkpt lat="43.7648017" lon="11.1732247"><ele>43.00000000000001</ele><time>2026-04-10T10:54:50.098Z</time></trkpt><trkpt lat="43.7648161" lon="11.173131"><ele>43.0</ele><time>2026-04-10T10:54:55.42Z</time></trkpt><trkpt lat="43.7648328" lon="11.1730328"><ele>43.0</ele><time>2026-04-10T10:55:00.46Z</time></trkpt><trkpt lat="43.7648474" lon="11.1729357"><ele>43.0</ele><time>2026-04-10T10:55:06.451Z</time></trkpt><trkpt lat="43.7648621" lon="11.172836"><ele>43.0</ele><time>2026-04-10T10:55:12.431Z</time></trkpt><trkpt lat="43.7648754" lon="11.1727491"><ele>43.00000000000001</ele><time>2026-04-10T10:55:17.43Z</time></trkpt><trkpt lat="43.7648886" lon="11.1726577"><ele>43.0</ele><time>2026-04-10T10:55:22.43Z</time></trkpt><trkpt lat="43.764915" lon="11.1725649"><ele>43.00000000000001</ele><time>2026-04-10T10:55:26.372Z</time></trkpt><trkpt lat="43.7649304" lon="11.1724663"><ele>43.0</ele><time>2026-04-10T10:55:31.453Z</time></trkpt><trkpt lat="43.7649514" lon="11.1723636"><ele>43.0</ele><time>2026-04-10T10:55:37.379Z</time></trkpt><trkpt lat="43.7649691" lon="11.1722637"><ele>43.0</ele><time>2026-04-10T10:55:42.431Z</time></trkpt><trkpt lat="43.7649861" lon="11.1721706"><ele>43.0</ele><time>2026-04-10T10:55:47.432Z</time></trkpt><trkpt lat="43.7650101" lon="11.1720887"><ele>43.00000000000001</ele><time>2026-04-10T10:55:52.431Z</time></trkpt><trkpt lat="43.7650213" lon="11.1719911"><ele>43.0</ele><time>2026-04-10T10:55:57.431Z</time></trkpt><trkpt lat="43.765034" lon="11.1719049"><ele>42.85714285714286</ele><time>2026-04-10T10:56:04.389Z</time></trkpt><trkpt lat="43.7650519" lon="11.1718195"><ele>42.714285714285715</ele><time>2026-04-10T10:56:11.453Z</time></trkpt><trkpt lat="43.765073" lon="11.171721"><ele>42.57142857142857</ele><time>2026-04-10T10:56:17.433Z</time></trkpt><trkpt lat="43.7651416" lon="11.1717231"><ele>42.42857142857143</ele><time>2026-04-10T10:56:25.372Z</time></trkpt><trkpt lat="43.7652044" lon="11.1717831"><ele>42.285714285714285</ele><time>2026-04-10T10:56:31.372Z</time></trkpt><trkpt lat="43.7652169" lon="11.1716939"><ele>42.142857142857146</ele><time>2026-04-10T10:57:52.437Z</time></trkpt><trkpt lat="43.7652784" lon="11.1716378"><ele>42.0</ele><time>2026-04-10T10:57:58.416Z</time></trkpt><trkpt lat="43.7653151" lon="11.1715626"><ele>41.857142857142854</ele><time>2026-04-10T10:58:02.439Z</time></trkpt><trkpt lat="43.765327" lon="11.1714673"><ele>41.714285714285715</ele><time>2026-04-10T10:58:07.396Z</time></trkpt><trkpt lat="43.7653367" lon="11.1713795"><ele>41.57142857142857</ele><time>2026-04-10T10:58:12.416Z</time></trkpt><trkpt lat="43.7653431" lon="11.1712786"><ele>41.42857142857143</ele><time>2026-04-10T10:58:16.372Z</time></trkpt><trkpt lat="43.7653434" lon="11.1711739"><ele>41.285714285714285</ele><time>2026-04-10T10:58:21.372Z</time></trkpt><trkpt lat="43.7653165" lon="11.171077"><ele>41.14285714285714</ele><time>2026-04-10T10:58:27.44Z</time></trkpt><trkpt lat="43.7652975" lon="11.1709827"><ele>41.0</ele><time>2026-04-10T10:58:32.44Z</time></trkpt><trkpt lat="43.7652827" lon="11.1708875"><ele>40.99999999999999</ele><time>2026-04-10T10:58:37.44Z</time></trkpt><trkpt lat="43.7652146" lon="11.1709247"><ele>41.0</ele><time>2026-04-10T10:58:44.397Z</time></trkpt><trkpt lat="43.7651424" lon="11.1709456"><ele>41.0</ele><time>2026-04-10T10:58:49.398Z</time></trkpt><trkpt lat="43.7650728" lon="11.1708926"><ele>41.0</ele><time>2026-04-10T10:58:54.421Z</time></trkpt><trkpt lat="43.764998" lon="11.1709134"><ele>41.0</ele><time>2026-04-10T10:58:58.476Z</time></trkpt><trkpt lat="43.7649513" lon="11.1709834"><ele>40.99999999999999</ele><time>2026-04-10T10:59:01.372Z</time></trkpt><trkpt lat="43.7649049" lon="11.1710609"><ele>41.0</ele><time>2026-04-10T10:59:06.372Z</time></trkpt><trkpt lat="43.7648605" lon="11.17114"><ele>40.99999999999999</ele><time>2026-04-10T10:59:12.443Z</time></trkpt><trkpt lat="43.7648163" lon="11.1712248"><ele>41.0</ele><time>2026-04-10T10:59:18.422Z</time></trkpt><trkpt lat="43.76477" lon="11.1712942"><ele>41.0</ele><time>2026-04-10T10:59:23.423Z</time></trkpt><trkpt lat="43.7647314" lon="11.1713835"><ele>41.0</ele><time>2026-04-10T10:59:29.401Z</time></trkpt><trkpt lat="43.7646979" lon="11.1714686"><ele>41.0</ele><time>2026-04-10T10:59:34.439Z</time></trkpt><trkpt lat="43.7646565" lon="11.1715514"><ele>40.99999999999999</ele><time>2026-04-10T10:59:39.402Z</time></trkpt><trkpt lat="43.7646206" lon="11.171632"><ele>41.0</ele><time>2026-04-10T10:59:45.381Z</time></trkpt><trkpt lat="43.7645733" lon="11.1717027"><ele>41.14285714285714</ele><time>2026-04-10T10:59:50.378Z</time></trkpt><trkpt lat="43.7645351" lon="11.1717863"><ele>41.285714285714285</ele><time>2026-04-10T10:59:55.382Z</time></trkpt><trkpt lat="43.7644929" lon="11.1718643"><ele>41.42857142857143</ele><time>2026-04-10T11:00:02.44Z</time></trkpt><trkpt lat="43.7644519" lon="11.1719365"><ele>41.57142857142857</ele><time>2026-04-10T11:00:07.45Z</time></trkpt><trkpt lat="43.7644141" lon="11.1720136"><ele>41.714285714285715</ele><time>2026-04-10T11:00:14.406Z</time></trkpt><trkpt lat="43.7643764" lon="11.1720895"><ele>41.857142857142854</ele><time>2026-04-10T11:00:18.358Z</time></trkpt><trkpt lat="43.7643288" lon="11.172161"><ele>42.0</ele><time>2026-04-10T11:00:22.451Z</time></trkpt><trkpt lat="43.7642806" lon="11.172241"><ele>42.0</ele><time>2026-04-10T11:00:27.451Z</time></trkpt><trkpt lat="43.7642346" lon="11.1723053"><ele>42.0</ele><time>2026-04-10T11:00:32.452Z</time></trkpt><trkpt lat="43.7641908" lon="11.1723837"><ele>42.0</ele><time>2026-04-10T11:00:39.409Z</time></trkpt><trkpt lat="43.7641502" lon="11.1724509"><ele>42.0</ele><time>2026-04-10T11:00:45.388Z</time></trkpt><trkpt lat="43.7641089" lon="11.1725317"><ele>42.0</ele><time>2026-04-10T11:00:50.389Z</time></trkpt><trkpt lat="43.7640717" lon="11.1726061"><ele>42.0</ele><time>2026-04-10T11:00:54.411Z</time></trkpt><trkpt lat="43.7640409" lon="11.1726984"><ele>42.0</ele><time>2026-04-10T11:00:58.433Z</time></trkpt><trkpt lat="43.764015" lon="11.1727939"><ele>41.857142857142854</ele><time>2026-04-10T11:01:04.412Z</time></trkpt><trkpt lat="43.7639542" lon="11.1728474"><ele>41.714285714285715</ele><time>2026-04-10T11:01:10.378Z</time></trkpt><trkpt lat="43.763874" lon="11.1728434"><ele>41.57142857142857</ele><time>2026-04-10T11:01:18.46Z</time></trkpt><trkpt lat="43.7637995" lon="11.1728522"><ele>41.42857142857143</ele><time>2026-04-10T11:01:24.415Z</time></trkpt><trkpt lat="43.7637372" lon="11.1727867"><ele>41.285714285714285</ele><time>2026-04-10T11:01:29.477Z</time></trkpt><trkpt lat="43.7636843" lon="11.1727295"><ele>41.14285714285714</ele><time>2026-04-10T11:01:34.415Z</time></trkpt><trkpt lat="43.7636243" lon="11.1726777"><ele>41.0</ele><time>2026-04-10T11:01:39.416Z</time></trkpt><trkpt lat="43.7635691" lon="11.1726348"><ele>40.99999999999999</ele><time>2026-04-10T11:01:44.417Z</time></trkpt><trkpt lat="43.7635167" lon="11.1725622"><ele>41.0</ele><time>2026-04-10T11:01:50.395Z</time></trkpt><trkpt lat="43.763472" lon="11.1724792"><ele>41.0</ele><time>2026-04-10T11:01:56.374Z</time></trkpt><trkpt lat="43.7634563" lon="11.1723926"><ele>41.0</ele><time>2026-04-10T11:02:00.339Z</time></trkpt><trkpt lat="43.7634411" lon="11.1722973"><ele>41.0</ele><time>2026-04-10T11:02:05.396Z</time></trkpt><trkpt lat="43.7633789" lon="11.1722697"><ele>40.99999999999999</ele><time>2026-04-10T11:02:10.397Z</time></trkpt><trkpt lat="43.7633125" lon="11.1722908"><ele>41.0</ele><time>2026-04-10T11:02:14.419Z</time></trkpt><trkpt lat="43.763264" lon="11.172361"><ele>40.99999999999999</ele><time>2026-04-10T11:02:19.419Z</time></trkpt><trkpt lat="43.763219" lon="11.17244"><ele>41.0</ele><time>2026-04-10T11:02:25.398Z</time></trkpt><trkpt lat="43.7631827" lon="11.1725311"><ele>41.0</ele><time>2026-04-10T11:02:30.399Z</time></trkpt><trkpt lat="43.7631385" lon="11.172616"><ele>41.0</ele><time>2026-04-10T11:02:35.436Z</time></trkpt><trkpt lat="43.7631083" lon="11.1726953"><ele>41.0</ele><time>2026-04-10T11:02:40.4Z</time></trkpt><trkpt lat="43.7630821" lon="11.1727773"><ele>40.99999999999999</ele><time>2026-04-10T11:02:45.401Z</time></trkpt><trkpt lat="43.7630451" lon="11.1728527"><ele>41.0</ele><time>2026-04-10T11:02:50.401Z</time></trkpt><trkpt lat="43.7629806" lon="11.1729294"><ele>40.99999999999999</ele><time>2026-04-10T11:02:57.48Z</time></trkpt><trkpt lat="43.7629522" lon="11.1730106"><ele>41.0</ele><time>2026-04-10T11:03:02.461Z</time></trkpt><trkpt lat="43.762921" lon="11.1730976"><ele>41.0</ele><time>2026-04-10T11:03:07.461Z</time></trkpt><trkpt lat="43.7628787" lon="11.1731803"><ele>41.0</ele><time>2026-04-10T11:03:12.462Z</time></trkpt><trkpt lat="43.7628422" lon="11.1732544"><ele>41.0</ele><time>2026-04-10T11:03:17.459Z</time></trkpt><trkpt lat="43.7628106" lon="11.1733393"><ele>40.99999999999999</ele><time>2026-04-10T11:03:22.461Z</time></trkpt><trkpt lat="43.7627653" lon="11.1734202"><ele>41.0</ele><time>2026-04-10T11:03:28.397Z</time></trkpt><trkpt lat="43.7627263" lon="11.1735073"><ele>41.285714285714285</ele><time>2026-04-10T11:03:33.439Z</time></trkpt><trkpt lat="43.7626851" lon="11.1735884"><ele>41.57142857142857</ele><time>2026-04-10T11:03:40.396Z</time></trkpt><trkpt lat="43.7626479" lon="11.1736724"><ele>41.85714285714286</ele><time>2026-04-10T11:03:46.481Z</time></trkpt><trkpt lat="43.7626066" lon="11.1737526"><ele>42.14285714285714</ele><time>2026-04-10T11:03:52.462Z</time></trkpt><trkpt lat="43.7625616" lon="11.1738272"><ele>42.42857142857143</ele><time>2026-04-10T11:03:58.44Z</time></trkpt><trkpt lat="43.7625249" lon="11.1739041"><ele>42.714285714285715</ele><time>2026-04-10T11:04:04.418Z</time></trkpt><trkpt lat="43.7624967" lon="11.1739862"><ele>43.0</ele><time>2026-04-10T11:04:10.396Z</time></trkpt><trkpt lat="43.7624597" lon="11.1740703"><ele>43.42857142857143</ele><time>2026-04-10T11:04:16.483Z</time></trkpt><trkpt lat="43.7624214" lon="11.1741505"><ele>43.85714285714286</ele><time>2026-04-10T11:04:21.374Z</time></trkpt><trkpt lat="43.762389" lon="11.1742267"><ele>44.28571428571429</ele><time>2026-04-10T11:04:25.395Z</time></trkpt><trkpt lat="43.7623502" lon="11.1743146"><ele>44.714285714285715</ele><time>2026-04-10T11:04:30.395Z</time></trkpt><trkpt lat="43.7623195" lon="11.1743915"><ele>45.14285714285714</ele><time>2026-04-10T11:04:36.373Z</time></trkpt><trkpt lat="43.7622829" lon="11.1744717"><ele>45.57142857142858</ele><time>2026-04-10T11:04:43.002Z</time></trkpt><trkpt lat="43.7622486" lon="11.1745472"><ele>46.0</ele><time>2026-04-10T11:04:49.416Z</time></trkpt><trkpt lat="43.7622144" lon="11.1746324"><ele>46.0</ele><time>2026-04-10T11:04:55.393Z</time></trkpt><trkpt lat="43.762179" lon="11.1747104"><ele>46.0</ele><time>2026-04-10T11:05:00.46Z</time></trkpt><trkpt lat="43.7621328" lon="11.1747792"><ele>46.0</ele><time>2026-04-10T11:05:05.321Z</time></trkpt><trkpt lat="43.7620674" lon="11.1748358"><ele>46.0</ele><time>2026-04-10T11:05:10.419Z</time></trkpt><trkpt lat="43.7620235" lon="11.1749014"><ele>46.0</ele><time>2026-04-10T11:05:26.296Z</time></trkpt><trkpt lat="43.7619609" lon="11.174945"><ele>46.0</ele><time>2026-04-10T11:05:32.455Z</time></trkpt><trkpt lat="43.7619" lon="11.1749793"><ele>46.0</ele><time>2026-04-10T11:05:37.454Z</time></trkpt><trkpt lat="43.7618306" lon="11.1749439"><ele>46.0</ele><time>2026-04-10T11:05:43.433Z</time></trkpt><trkpt lat="43.7617679" lon="11.174962"><ele>46.0</ele><time>2026-04-10T11:05:48.431Z</time></trkpt><trkpt lat="43.7617458" lon="11.1750492"><ele>46.0</ele><time>2026-04-10T11:05:54.409Z</time></trkpt><trkpt lat="43.7617289" lon="11.1751522"><ele>46.0</ele><time>2026-04-10T11:05:58.43Z</time></trkpt><trkpt lat="43.7617244" lon="11.1752528"><ele>46.0</ele><time>2026-04-10T11:06:02.451Z</time></trkpt><trkpt lat="43.7617314" lon="11.1753518"><ele>46.0</ele><time>2026-04-10T11:06:05.495Z</time></trkpt><trkpt lat="43.7617061" lon="11.1754836"><ele>46.0</ele><time>2026-04-10T11:06:09.407Z</time></trkpt><trkpt lat="43.7616703" lon="11.1755664"><ele>46.0</ele><time>2026-04-10T11:06:12.45Z</time></trkpt><trkpt lat="43.7616468" lon="11.1756495"><ele>46.0</ele><time>2026-04-10T11:06:15.385Z</time></trkpt><trkpt lat="43.761617" lon="11.1757385"><ele>46.0</ele><time>2026-04-10T11:06:19.338Z</time></trkpt><trkpt lat="43.7615889" lon="11.1758357"><ele>46.0</ele><time>2026-04-10T11:06:24.404Z</time></trkpt><trkpt lat="43.7615634" lon="11.1759173"><ele>46.0</ele><time>2026-04-10T11:06:29.404Z</time></trkpt><trkpt lat="43.7615269" lon="11.1760071"><ele>46.0</ele><time>2026-04-10T11:06:35.491Z</time></trkpt><trkpt lat="43.7614913" lon="11.1760855"><ele>45.714285714285715</ele><time>2026-04-10T11:06:40.489Z</time></trkpt><trkpt lat="43.7614653" lon="11.1761801"><ele>45.42857142857142</ele><time>2026-04-10T11:06:47.445Z</time></trkpt><trkpt lat="43.7614724" lon="11.1762805"><ele>45.14285714285714</ele><time>2026-04-10T11:06:54.4Z</time></trkpt><trkpt lat="43.7614148" lon="11.1763514"><ele>44.85714285714286</ele><time>2026-04-10T11:06:59.481Z</time></trkpt><trkpt lat="43.7613603" lon="11.1764089"><ele>44.57142857142857</ele><time>2026-04-10T11:07:05.359Z</time></trkpt><trkpt lat="43.7613306" lon="11.1764874"><ele>44.285714285714285</ele><time>2026-04-10T11:07:09.398Z</time></trkpt><trkpt lat="43.7612949" lon="11.1765795"><ele>44.0</ele><time>2026-04-10T11:07:15.485Z</time></trkpt><trkpt lat="43.7612721" lon="11.176662"><ele>43.85714285714286</ele><time>2026-04-10T11:07:21.461Z</time></trkpt><trkpt lat="43.7612497" lon="11.1767442"><ele>43.714285714285715</ele><time>2026-04-10T11:07:26.46Z</time></trkpt><trkpt lat="43.7612248" lon="11.1768253"><ele>43.57142857142857</ele><time>2026-04-10T11:07:32.437Z</time></trkpt><trkpt lat="43.7611828" lon="11.1769109"><ele>43.42857142857143</ele><time>2026-04-10T11:07:37.421Z</time></trkpt><trkpt lat="43.7611444" lon="11.1770039"><ele>43.285714285714285</ele><time>2026-04-10T11:07:42.436Z</time></trkpt><trkpt lat="43.761107" lon="11.1770932"><ele>43.142857142857146</ele><time>2026-04-10T11:07:47.435Z</time></trkpt><trkpt lat="43.7610569" lon="11.1771633"><ele>43.0</ele><time>2026-04-10T11:07:52.435Z</time></trkpt><trkpt lat="43.7610188" lon="11.1772495"><ele>43.00000000000001</ele><time>2026-04-10T11:07:57.433Z</time></trkpt><trkpt lat="43.760983" lon="11.1773239"><ele>43.0</ele><time>2026-04-10T11:08:02.433Z</time></trkpt><trkpt lat="43.7609455" lon="11.1774075"><ele>43.0</ele><time>2026-04-10T11:08:07.433Z</time></trkpt><trkpt lat="43.7609194" lon="11.177497"><ele>43.0</ele><time>2026-04-10T11:08:12.431Z</time></trkpt><trkpt lat="43.7608878" lon="11.1775855"><ele>43.0</ele><time>2026-04-10T11:08:17.431Z</time></trkpt><trkpt lat="43.7608479" lon="11.1776617"><ele>43.00000000000001</ele><time>2026-04-10T11:08:22.398Z</time></trkpt><trkpt lat="43.7608145" lon="11.1777432"><ele>43.0</ele><time>2026-04-10T11:08:26.45Z</time></trkpt><trkpt lat="43.760793" lon="11.1778263"><ele>43.00000000000001</ele><time>2026-04-10T11:08:31.417Z</time></trkpt><trkpt lat="43.7607649" lon="11.1779056"><ele>43.0</ele><time>2026-04-10T11:08:35.47Z</time></trkpt><trkpt lat="43.7607322" lon="11.1779819"><ele>43.0</ele><time>2026-04-10T11:08:40.469Z</time></trkpt><trkpt lat="43.7606923" lon="11.1780622"><ele>43.0</ele><time>2026-04-10T11:08:45.468Z</time></trkpt><trkpt lat="43.760662" lon="11.1781548"><ele>43.0</ele><time>2026-04-10T11:08:51.445Z</time></trkpt><trkpt lat="43.7606173" lon="11.1782381"><ele>43.00000000000001</ele><time>2026-04-10T11:08:56.444Z</time></trkpt><trkpt lat="43.7605791" lon="11.178311"><ele>43.0</ele><time>2026-04-10T11:09:00.465Z</time></trkpt><trkpt lat="43.7605401" lon="11.1783892"><ele>42.85714285714286</ele><time>2026-04-10T11:09:05.465Z</time></trkpt><trkpt lat="43.7605417" lon="11.1784771"><ele>42.714285714285715</ele><time>2026-04-10T11:09:11.498Z</time></trkpt><trkpt lat="43.7604954" lon="11.1785475"><ele>42.57142857142857</ele><time>2026-04-10T11:09:15.463Z</time></trkpt><trkpt lat="43.760455" lon="11.178619"><ele>42.42857142857143</ele><time>2026-04-10T11:09:20.462Z</time></trkpt><trkpt lat="43.7604556" lon="11.1787108"><ele>42.285714285714285</ele><time>2026-04-10T11:09:23.396Z</time></trkpt><trkpt lat="43.760441" lon="11.178806"><ele>42.142857142857146</ele><time>2026-04-10T11:09:28.318Z</time></trkpt><trkpt lat="43.7604254" lon="11.1788909"><ele>42.0</ele><time>2026-04-10T11:09:35.459Z</time></trkpt><trkpt lat="43.7603686" lon="11.1789447"><ele>42.0</ele><time>2026-04-10T11:09:43.124Z</time></trkpt><trkpt lat="43.7603046" lon="11.1789863"><ele>42.0</ele><time>2026-04-10T11:09:48.391Z</time></trkpt><trkpt lat="43.7602345" lon="11.1790164"><ele>42.0</ele><time>2026-04-10T11:09:54.477Z</time></trkpt><trkpt lat="43.760177" lon="11.179054"><ele>42.0</ele><time>2026-04-10T11:10:04.474Z</time></trkpt><trkpt lat="43.7601347" lon="11.179124"><ele>42.0</ele><time>2026-04-10T11:10:09.473Z</time></trkpt><trkpt lat="43.7600974" lon="11.1792025"><ele>42.0</ele><time>2026-04-10T11:10:13.387Z</time></trkpt><trkpt lat="43.760058" lon="11.1792904"><ele>42.0</ele><time>2026-04-10T11:10:18.385Z</time></trkpt><trkpt lat="43.7600243" lon="11.1793769"><ele>42.285714285714285</ele><time>2026-04-10T11:10:23.492Z</time></trkpt><trkpt lat="43.7599839" lon="11.1794592"><ele>42.57142857142857</ele><time>2026-04-10T11:10:28.383Z</time></trkpt><trkpt lat="43.7599518" lon="11.1795424"><ele>42.85714285714286</ele><time>2026-04-10T11:10:34.468Z</time></trkpt><trkpt lat="43.7599438" lon="11.1796293"><ele>43.14285714285714</ele><time>2026-04-10T11:10:45.444Z</time></trkpt><trkpt lat="43.7599619" lon="11.1797149"><ele>43.42857142857143</ele><time>2026-04-10T11:11:39.37Z</time></trkpt><trkpt lat="43.7599949" lon="11.1798033"><ele>43.714285714285715</ele><time>2026-04-10T11:13:41.414Z</time></trkpt><trkpt lat="43.7600042" lon="11.1798926"><ele>44.0</ele><time>2026-04-10T11:13:46.415Z</time></trkpt><trkpt lat="43.7599957" lon="11.179984"><ele>44.0</ele><time>2026-04-10T11:13:52.461Z</time></trkpt><trkpt lat="43.759952" lon="11.180052"><ele>44.0</ele><time>2026-04-10T11:13:56.398Z</time></trkpt><trkpt lat="43.7598942" lon="11.1801233"><ele>44.0</ele><time>2026-04-10T11:14:00.421Z</time></trkpt><trkpt lat="43.7598161" lon="11.1801564"><ele>44.0</ele><time>2026-04-10T11:14:03.458Z</time></trkpt><trkpt lat="43.7597539" lon="11.18017"><ele>44.0</ele><time>2026-04-10T11:14:07.394Z</time></trkpt><trkpt lat="43.7596943" lon="11.1802279"><ele>44.0</ele><time>2026-04-10T11:14:11.416Z</time></trkpt><trkpt lat="43.7596613" lon="11.1803206"><ele>44.0</ele><time>2026-04-10T11:14:15.433Z</time></trkpt><trkpt lat="43.7596538" lon="11.1804197"><ele>44.0</ele><time>2026-04-10T11:14:19.369Z</time></trkpt><trkpt lat="43.7596267" lon="11.1805051"><ele>44.0</ele><time>2026-04-10T11:14:24.37Z</time></trkpt><trkpt lat="43.7596051" lon="11.1805885"><ele>44.0</ele><time>2026-04-10T11:14:29.369Z</time></trkpt><trkpt lat="43.759577" lon="11.1806869"><ele>44.0</ele><time>2026-04-10T11:14:36.412Z</time></trkpt><trkpt lat="43.7595179" lon="11.1807446"><ele>44.0</ele><time>2026-04-10T11:14:42.392Z</time></trkpt><trkpt lat="43.759487" lon="11.180832"><ele>44.0</ele><time>2026-04-10T11:14:47.358Z</time></trkpt><trkpt lat="43.7594401" lon="11.1809063"><ele>44.0</ele><time>2026-04-10T11:14:53.369Z</time></trkpt><trkpt lat="43.7593895" lon="11.1809633"><ele>44.142857142857146</ele><time>2026-04-10T11:14:59.456Z</time></trkpt><trkpt lat="43.7593482" lon="11.1810301"><ele>44.285714285714285</ele><time>2026-04-10T11:15:05.435Z</time></trkpt><trkpt lat="43.75931" lon="11.1811056"><ele>44.42857142857143</ele><time>2026-04-10T11:15:11.413Z</time></trkpt><trkpt lat="43.7592946" lon="11.1812013"><ele>44.57142857142857</ele><time>2026-04-10T11:15:17.392Z</time></trkpt><trkpt lat="43.7592705" lon="11.1812962"><ele>44.714285714285715</ele><time>2026-04-10T11:15:23.339Z</time></trkpt><trkpt lat="43.7592465" lon="11.1813881"><ele>44.857142857142854</ele><time>2026-04-10T11:15:28.372Z</time></trkpt><trkpt lat="43.759222" lon="11.1814803"><ele>45.0</ele><time>2026-04-10T11:15:33.372Z</time></trkpt><trkpt lat="43.7591859" lon="11.1815552"><ele>45.0</ele><time>2026-04-10T11:15:38.371Z</time></trkpt><trkpt lat="43.7591396" lon="11.1816157"><ele>45.0</ele><time>2026-04-10T11:15:43.457Z</time></trkpt><trkpt lat="43.7590783" lon="11.181658"><ele>45.0</ele><time>2026-04-10T11:15:48.371Z</time></trkpt><trkpt lat="43.7590474" lon="11.1817354"><ele>45.0</ele><time>2026-04-10T11:15:56.524Z</time></trkpt><trkpt lat="43.7590676" lon="11.1818434"><ele>45.0</ele><time>2026-04-10T11:16:23.482Z</time></trkpt><trkpt lat="43.7590283" lon="11.1819139"><ele>45.0</ele><time>2026-04-10T11:16:28.373Z</time></trkpt><trkpt lat="43.7589727" lon="11.1819749"><ele>45.0</ele><time>2026-04-10T11:24:19.46Z</time></trkpt><trkpt lat="43.7588949" lon="11.1819933"><ele>45.0</ele><time>2026-04-10T11:24:24.436Z</time></trkpt><trkpt lat="43.75883" lon="11.1819832"><ele>45.0</ele><time>2026-04-10T11:24:29.368Z</time></trkpt><trkpt lat="43.7587607" lon="11.1819715"><ele>45.0</ele><time>2026-04-10T11:24:35.368Z</time></trkpt><trkpt lat="43.7587011" lon="11.1819406"><ele>45.0</ele><time>2026-04-10T11:24:39.369Z</time></trkpt><trkpt lat="43.7586352" lon="11.1819149"><ele>45.0</ele><time>2026-04-10T11:24:44.46Z</time></trkpt><trkpt lat="43.7585887" lon="11.1818464"><ele>45.0</ele><time>2026-04-10T11:24:49.458Z</time></trkpt><trkpt lat="43.7585434" lon="11.1817638"><ele>45.0</ele><time>2026-04-10T11:24:54.398Z</time></trkpt><trkpt lat="43.7585073" lon="11.181687"><ele>45.0</ele><time>2026-04-10T11:25:00.439Z</time></trkpt><trkpt lat="43.7584426" lon="11.1816341"><ele>45.0</ele><time>2026-04-10T11:25:07.395Z</time></trkpt><trkpt lat="43.7583732" lon="11.1815781"><ele>45.0</ele><time>2026-04-10T11:25:13.481Z</time></trkpt><trkpt lat="43.7583136" lon="11.1815288"><ele>45.0</ele><time>2026-04-10T11:25:18.482Z</time></trkpt><trkpt lat="43.7582516" lon="11.1814719"><ele>45.0</ele><time>2026-04-10T11:25:23.481Z</time></trkpt><trkpt lat="43.7582064" lon="11.1813864"><ele>45.0</ele><time>2026-04-10T11:25:29.459Z</time></trkpt><trkpt lat="43.7581652" lon="11.1813052"><ele>45.0</ele><time>2026-04-10T11:25:35.437Z</time></trkpt><trkpt lat="43.7581114" lon="11.1812341"><ele>45.0</ele><time>2026-04-10T11:25:41.415Z</time></trkpt><trkpt lat="43.7580488" lon="11.1811897"><ele>45.0</ele><time>2026-04-10T11:25:46.415Z</time></trkpt><trkpt lat="43.7579975" lon="11.1811237"><ele>45.0</ele><time>2026-04-10T11:25:51.377Z</time></trkpt><trkpt lat="43.7579484" lon="11.1810623"><ele>45.0</ele><time>2026-04-10T11:25:57.419Z</time></trkpt><trkpt lat="43.757967" lon="11.1809698"><ele>45.0</ele><time>2026-04-10T11:26:04.458Z</time></trkpt><trkpt lat="43.7579473" lon="11.1808799"><ele>45.0</ele><time>2026-04-10T11:26:10.328Z</time></trkpt></trkseg></trk></gpx>